sensor_id;sensor_type;location;lat;lon;timestamp;P1;durP1;ratioP1;P2;durP2;ratioP2
65279;SDS011;51878;55.748;48.742;2023-03-17T00:00:57;2.97;;;1.00;;
65279;SDS011;51878;55.748;48.742;2023-03-17T00:05:59;2.75;;;0.80;;
65279;SDS011;51878;55.748;48.742;2023-03-17T00:11:02;0.82;;;0.73;;
65279;SDS011;51878;55.748;48.742;2023-03-17T00:16:05;3.50;;;0.90;;
65279;SDS011;51878;55.748;48.742;2023-03-17T00:21:14;0.60;;;0.60;;
65279;SDS011;51878;55.748;48.742;2023-03-17T00:26:20;2.40;;;0.90;;
65279;SDS011;51878;55.748;48.742;2023-03-17T00:31:22;1.05;;;0.95;;
65279;SDS011;51878;55.748;48.742;2023-03-17T00:36:27;1.77;;;0.75;;
65279;SDS011;51878;55.748;48.742;2023-03-17T00:41:31;0.80;;;0.80;;
65279;SDS011;51878;55.748;48.742;2023-03-17T00:46:33;2.72;;;0.82;;
65279;SDS011;51878;55.748;48.742;2023-03-17T00:51:39;0.68;;;0.68;;
65279;SDS011;51878;55.748;48.742;2023-03-17T00:56:41;0.57;;;0.57;;
65279;SDS011;51878;55.748;48.742;2023-03-17T01:01:44;1.75;;;0.90;;
65279;SDS011;51878;55.748;48.742;2023-03-17T01:06:47;0.75;;;0.75;;
65279;SDS011;51878;55.748;48.742;2023-03-17T01:11:50;0.70;;;0.70;;
65279;SDS011;51878;55.748;48.742;2023-03-17T01:16:52;1.35;;;0.90;;
65279;SDS011;51878;55.748;48.742;2023-03-17T01:21:55;0.98;;;0.70;;
65279;SDS011;51878;55.748;48.742;2023-03-17T01:26:58;0.82;;;0.80;;
65279;SDS011;51878;55.748;48.742;2023-03-17T01:32:00;2.13;;;0.77;;
65279;SDS011;51878;55.748;48.742;2023-03-17T01:37:02;1.05;;;0.73;;
65279;SDS011;51878;55.748;48.742;2023-03-17T01:42:05;0.90;;;0.90;;
65279;SDS011;51878;55.748;48.742;2023-03-17T01:47:07;2.53;;;0.80;;
65279;SDS011;51878;55.748;48.742;2023-03-17T01:52:10;0.60;;;0.60;;
65279;SDS011;51878;55.748;48.742;2023-03-17T01:57:29;1.13;;;0.77;;
65279;SDS011;51878;55.748;48.742;2023-03-17T02:02:35;1.23;;;0.65;;
65279;SDS011;51878;55.748;48.742;2023-03-17T02:07:39;1.23;;;0.73;;
65279;SDS011;51878;55.748;48.742;2023-03-17T02:12:42;1.40;;;0.80;;
65279;SDS011;51878;55.748;48.742;2023-03-17T02:17:45;1.95;;;0.90;;
65279;SDS011;51878;55.748;48.742;2023-03-17T02:22:49;1.40;;;0.88;;
65279;SDS011;51878;55.748;48.742;2023-03-17T02:27:58;1.23;;;0.90;;
65279;SDS011;51878;55.748;48.742;2023-03-17T02:33:02;0.85;;;0.70;;
65279;SDS011;51878;55.748;48.742;2023-03-17T02:38:05;0.80;;;0.80;;
65279;SDS011;51878;55.748;48.742;2023-03-17T02:43:07;3.60;;;0.80;;
65279;SDS011;51878;55.748;48.742;2023-03-17T02:48:09;0.70;;;0.70;;
65279;SDS011;51878;55.748;48.742;2023-03-17T02:53:12;0.55;;;0.55;;
65279;SDS011;51878;55.748;48.742;2023-03-17T02:58:14;4.32;;;0.80;;
65279;SDS011;51878;55.748;48.742;2023-03-17T03:03:16;1.60;;;0.90;;
65279;SDS011;51878;55.748;48.742;2023-03-17T03:08:19;0.60;;;0.60;;
65279;SDS011;51878;55.748;48.742;2023-03-17T03:13:21;4.38;;;0.90;;
65279;SDS011;51878;55.748;48.742;2023-03-17T03:18:24;1.33;;;0.70;;
65279;SDS011;51878;55.748;48.742;2023-03-17T03:23:26;0.63;;;0.63;;
65279;SDS011;51878;55.748;48.742;2023-03-17T03:28:28;1.27;;;0.80;;
65279;SDS011;51878;55.748;48.742;2023-03-17T03:33:31;0.57;;;0.55;;
65279;SDS011;51878;55.748;48.742;2023-03-17T03:38:34;1.55;;;0.80;;
65279;SDS011;51878;55.748;48.742;2023-03-17T03:43:36;0.60;;;0.60;;
65279;SDS011;51878;55.748;48.742;2023-03-17T03:48:38;0.55;;;0.55;;
65279;SDS011;51878;55.748;48.742;2023-03-17T03:53:40;0.82;;;0.82;;
65279;SDS011;51878;55.748;48.742;2023-03-17T03:58:42;5.32;;;0.80;;
65279;SDS011;51878;55.748;48.742;2023-03-17T04:03:44;0.82;;;0.82;;
65279;SDS011;51878;55.748;48.742;2023-03-17T04:08:47;1.65;;;1.00;;
65279;SDS011;51878;55.748;48.742;2023-03-17T04:13:50;3.50;;;0.80;;
65279;SDS011;51878;55.748;48.742;2023-03-17T04:18:52;2.72;;;0.85;;
65279;SDS011;51878;55.748;48.742;2023-03-17T04:23:54;1.55;;;0.80;;
65279;SDS011;51878;55.748;48.742;2023-03-17T04:28:56;0.57;;;0.57;;
65279;SDS011;51878;55.748;48.742;2023-03-17T04:33:59;0.70;;;0.70;;
65279;SDS011;51878;55.748;48.742;2023-03-17T04:39:02;3.17;;;0.73;;
65279;SDS011;51878;55.748;48.742;2023-03-17T04:44:04;2.72;;;0.77;;
65279;SDS011;51878;55.748;48.742;2023-03-17T04:49:07;2.65;;;1.02;;
65279;SDS011;51878;55.748;48.742;2023-03-17T04:54:10;1.70;;;1.00;;
65279;SDS011;51878;55.748;48.742;2023-03-17T04:59:12;1.98;;;0.98;;
65279;SDS011;51878;55.748;48.742;2023-03-17T05:04:14;0.60;;;0.60;;
65279;SDS011;51878;55.748;48.742;2023-03-17T05:09:30;1.30;;;0.93;;
65279;SDS011;51878;55.748;48.742;2023-03-17T05:14:33;3.78;;;1.10;;
65279;SDS011;51878;55.748;48.742;2023-03-17T05:19:35;1.67;;;0.82;;
65279;SDS011;51878;55.748;48.742;2023-03-17T05:24:38;2.58;;;1.50;;
65279;SDS011;51878;55.748;48.742;2023-03-17T05:29:40;5.60;;;1.52;;
65279;SDS011;51878;55.748;48.742;2023-03-17T05:34:43;15.38;;;1.20;;
65279;SDS011;51878;55.748;48.742;2023-03-17T05:39:45;5.60;;;1.10;;
65279;SDS011;51878;55.748;48.742;2023-03-17T05:44:47;10.18;;;1.63;;
65279;SDS011;51878;55.748;48.742;2023-03-17T05:49:49;12.48;;;1.50;;
65279;SDS011;51878;55.748;48.742;2023-03-17T05:54:52;3.85;;;0.95;;
65279;SDS011;51878;55.748;48.742;2023-03-17T05:59:55;4.25;;;1.30;;
65279;SDS011;51878;55.748;48.742;2023-03-17T06:04:57;8.60;;;1.17;;
65279;SDS011;51878;55.748;48.742;2023-03-17T06:10:00;8.90;;;1.20;;
65279;SDS011;51878;55.748;48.742;2023-03-17T06:15:03;3.25;;;1.00;;
65279;SDS011;51878;55.748;48.742;2023-03-17T06:20:06;13.35;;;1.50;;
65279;SDS011;51878;55.748;48.742;2023-03-17T06:25:09;2.45;;;1.00;;
65279;SDS011;51878;55.748;48.742;2023-03-17T06:30:12;2.90;;;1.10;;
65279;SDS011;51878;55.748;48.742;2023-03-17T06:35:15;7.07;;;0.90;;
65279;SDS011;51878;55.748;48.742;2023-03-17T06:40:18;6.20;;;1.10;;
65279;SDS011;51878;55.748;48.742;2023-03-17T06:45:20;3.20;;;0.98;;
65279;SDS011;51878;55.748;48.742;2023-03-17T06:50:23;9.63;;;1.05;;
65279;SDS011;51878;55.748;48.742;2023-03-17T06:55:26;1.85;;;0.90;;
65279;SDS011;51878;55.748;48.742;2023-03-17T07:00:28;0.80;;;0.80;;
65279;SDS011;51878;55.748;48.742;2023-03-17T07:05:31;4.25;;;1.35;;
65279;SDS011;51878;55.748;48.742;2023-03-17T07:10:34;3.22;;;1.17;;
65279;SDS011;51878;55.748;48.742;2023-03-17T07:15:37;3.47;;;1.30;;
65279;SDS011;51878;55.748;48.742;2023-03-17T07:20:39;13.20;;;1.48;;
65279;SDS011;51878;55.748;48.742;2023-03-17T07:25:42;4.95;;;1.10;;
65279;SDS011;51878;55.748;48.742;2023-03-17T07:30:46;3.63;;;1.02;;
65279;SDS011;51878;55.748;48.742;2023-03-17T07:35:49;4.78;;;0.90;;
65279;SDS011;51878;55.748;48.742;2023-03-17T07:40:52;5.47;;;1.05;;
65279;SDS011;51878;55.748;48.742;2023-03-17T07:45:55;11.93;;;1.33;;
65279;SDS011;51878;55.748;48.742;2023-03-17T07:50:58;6.95;;;1.35;;
65279;SDS011;51878;55.748;48.742;2023-03-17T07:56:01;27.45;;;1.40;;
65279;SDS011;51878;55.748;48.742;2023-03-17T08:01:03;3.08;;;0.93;;
65279;SDS011;51878;55.748;48.742;2023-03-17T08:06:05;5.47;;;1.13;;
65279;SDS011;51878;55.748;48.742;2023-03-17T08:11:09;7.18;;;1.30;;
65279;SDS011;51878;55.748;48.742;2023-03-17T08:16:11;8.80;;;1.27;;
65279;SDS011;51878;55.748;48.742;2023-03-17T08:21:13;23.77;;;1.52;;
65279;SDS011;51878;55.748;48.742;2023-03-17T08:26:16;9.55;;;1.45;;
65279;SDS011;51878;55.748;48.742;2023-03-17T08:31:19;17.33;;;1.38;;
65279;SDS011;51878;55.748;48.742;2023-03-17T08:36:23;10.30;;;1.48;;
65279;SDS011;51878;55.748;48.742;2023-03-17T08:41:26;15.02;;;1.45;;
65279;SDS011;51878;55.748;48.742;2023-03-17T08:46:30;7.45;;;1.20;;
65279;SDS011;51878;55.748;48.742;2023-03-17T08:51:34;21.48;;;1.52;;
65279;SDS011;51878;55.748;48.742;2023-03-17T08:56:38;5.93;;;1.63;;
65279;SDS011;51878;55.748;48.742;2023-03-17T09:01:41;2.75;;;1.20;;
65279;SDS011;51878;55.748;48.742;2023-03-17T09:06:45;16.52;;;1.77;;
65279;SDS011;51878;55.748;48.742;2023-03-17T09:12:03;8.07;;;1.33;;
65279;SDS011;51878;55.748;48.742;2023-03-17T09:17:07;10.63;;;1.20;;
65279;SDS011;51878;55.748;48.742;2023-03-17T09:22:13;8.55;;;1.40;;
65279;SDS011;51878;55.748;48.742;2023-03-17T09:27:18;5.70;;;1.33;;
65279;SDS011;51878;55.748;48.742;2023-03-17T09:32:20;18.58;;;1.42;;
65279;SDS011;51878;55.748;48.742;2023-03-17T09:37:23;16.27;;;1.80;;
65279;SDS011;51878;55.748;48.742;2023-03-17T09:42:34;6.47;;;1.20;;
65279;SDS011;51878;55.748;48.742;2023-03-17T10:04:44;14.23;;;1.80;;
65279;SDS011;51878;55.748;48.742;2023-03-17T10:15:11;25.40;;;1.65;;
65279;SDS011;51878;55.748;48.742;2023-03-17T10:20:27;15.25;;;2.38;;
65279;SDS011;51878;55.748;48.742;2023-03-17T10:25:34;9.70;;;1.57;;
65279;SDS011;51878;55.748;48.742;2023-03-17T10:30:37;17.17;;;3.53;;
65279;SDS011;51878;55.748;48.742;2023-03-17T10:35:39;12.43;;;1.98;;
65279;SDS011;51878;55.748;48.742;2023-03-17T10:40:43;4.75;;;1.98;;
65279;SDS011;51878;55.748;48.742;2023-03-17T10:45:57;13.85;;;1.60;;
65279;SDS011;51878;55.748;48.742;2023-03-17T10:51:04;8.50;;;1.65;;
65279;SDS011;51878;55.748;48.742;2023-03-17T10:56:10;15.38;;;1.80;;
65279;SDS011;51878;55.748;48.742;2023-03-17T11:01:27;7.32;;;2.42;;
65279;SDS011;51878;55.748;48.742;2023-03-17T11:06:40;4.43;;;1.10;;
65279;SDS011;51878;55.748;48.742;2023-03-17T11:11:47;11.07;;;1.60;;
65279;SDS011;51878;55.748;48.742;2023-03-17T11:16:52;8.63;;;2.10;;
65279;SDS011;51878;55.748;48.742;2023-03-17T11:22:02;7.55;;;1.60;;
65279;SDS011;51878;55.748;48.742;2023-03-17T11:27:30;10.07;;;1.60;;
65279;SDS011;51878;55.748;48.742;2023-03-17T11:38:18;12.55;;;2.35;;
65279;SDS011;51878;55.748;48.742;2023-03-17T11:59:27;5.40;;;1.45;;
65279;SDS011;51878;55.748;48.742;2023-03-17T12:04:39;10.82;;;1.98;;
65279;SDS011;51878;55.748;48.742;2023-03-17T12:10:02;14.43;;;2.55;;
65279;SDS011;51878;55.748;48.742;2023-03-17T12:15:33;7.68;;;2.20;;
65279;SDS011;51878;55.748;48.742;2023-03-17T12:36:00;6.85;;;2.30;;
65279;SDS011;51878;55.748;48.742;2023-03-17T12:46:38;14.30;;;2.30;;
65279;SDS011;51878;55.748;48.742;2023-03-17T12:56:48;11.77;;;3.10;;
65279;SDS011;51878;55.748;48.742;2023-03-17T13:07:21;5.15;;;2.40;;
65279;SDS011;51878;55.748;48.742;2023-03-17T13:17:49;5.78;;;1.90;;
65279;SDS011;51878;55.748;48.742;2023-03-17T13:28:15;6.50;;;2.13;;
65279;SDS011;51878;55.748;48.742;2023-03-17T13:33:29;6.22;;;2.80;;
65279;SDS011;51878;55.748;48.742;2023-03-17T13:38:41;17.92;;;3.28;;
65279;SDS011;51878;55.748;48.742;2023-03-17T13:44:02;18.02;;;2.95;;
65279;SDS011;51878;55.748;48.742;2023-03-17T13:54:31;9.63;;;2.63;;
65279;SDS011;51878;55.748;48.742;2023-03-17T13:59:52;16.08;;;3.70;;
65279;SDS011;51878;55.748;48.742;2023-03-17T14:05:05;12.15;;;3.90;;
65279;SDS011;51878;55.748;48.742;2023-03-17T14:10:16;16.42;;;4.00;;
65279;SDS011;51878;55.748;48.742;2023-03-17T14:15:36;20.02;;;6.60;;
65279;SDS011;51878;55.748;48.742;2023-03-17T14:20:52;27.95;;;10.85;;
65279;SDS011;51878;55.748;48.742;2023-03-17T14:25:56;20.55;;;10.40;;
65279;SDS011;51878;55.748;48.742;2023-03-17T14:31:01;24.90;;;8.90;;
65279;SDS011;51878;55.748;48.742;2023-03-17T14:36:07;25.02;;;10.43;;
65279;SDS011;51878;55.748;48.742;2023-03-17T14:46:31;33.78;;;9.02;;
65279;SDS011;51878;55.748;48.742;2023-03-17T14:51:36;43.20;;;10.57;;
65279;SDS011;51878;55.748;48.742;2023-03-17T14:56:41;166.90;;;11.40;;
65279;SDS011;51878;55.748;48.742;2023-03-17T15:01:47;76.13;;;9.80;;
65279;SDS011;51878;55.748;48.742;2023-03-17T15:07:04;203.38;;;12.95;;
65279;SDS011;51878;55.748;48.742;2023-03-17T15:12:16;345.27;;;15.15;;
65279;SDS011;51878;55.748;48.742;2023-03-17T15:17:32;540.03;;;19.58;;
65279;SDS011;51878;55.748;48.742;2023-03-17T15:27:38;404.48;;;19.52;;
